createdAt,value
2019-03-09T00:00:23.595Z,993.60
2019-03-09T00:01:23.593Z,993.48
2019-03-09T00:02:23.579Z,993.52
2019-03-09T00:03:23.566Z,993.33
2019-03-09T00:04:23.580Z,993.51
2019-03-09T00:05:23.545Z,993.41
2019-03-09T00:06:23.543Z,993.44
2019-03-09T00:07:23.540Z,993.47
2019-03-09T00:08:23.509Z,993.52
2019-03-09T00:09:23.523Z,993.43
2019-03-09T00:10:23.487Z,993.26
2019-03-09T00:11:23.475Z,993.31
2019-03-09T00:12:23.467Z,993.44
2019-03-09T00:13:23.455Z,993.33
2019-03-09T00:14:23.472Z,993.38
2019-03-09T00:15:23.435Z,993.42
2019-03-09T00:16:23.422Z,993.24
2019-03-09T00:17:23.412Z,993.34
2019-03-09T00:18:23.418Z,993.28
2019-03-09T00:19:23.413Z,993.29
2019-03-09T00:20:23.378Z,993.05
2019-03-09T00:21:23.367Z,993.23
2019-03-09T00:22:23.357Z,993.12
2019-03-09T00:23:23.347Z,993.05
2019-03-09T00:24:23.358Z,992.96
2019-03-09T00:25:23.322Z,993.08
2019-03-09T00:26:23.312Z,992.96
2019-03-09T00:27:29.710Z,992.98
2019-03-09T00:28:24.297Z,992.91
2019-03-09T00:29:23.331Z,992.88
2019-03-09T00:30:23.270Z,992.93
2019-03-09T00:31:25.312Z,992.82
2019-03-09T00:32:23.316Z,992.74
2019-03-09T00:33:23.266Z,992.78
2019-03-09T00:34:23.269Z,992.76
2019-03-09T00:35:23.221Z,992.69
2019-03-09T00:36:23.211Z,992.72
2019-03-09T00:37:23.199Z,992.69
2019-03-09T00:38:23.200Z,992.61
2019-03-09T00:39:23.172Z,992.69
2019-03-09T00:40:23.187Z,992.62
2019-03-09T00:41:23.158Z,992.59
2019-03-09T00:42:23.142Z,992.56
2019-03-09T00:43:23.141Z,992.59
2019-03-09T00:44:23.124Z,992.53
2019-03-09T00:45:23.141Z,992.55
2019-03-09T00:46:23.103Z,992.53
2019-03-09T00:47:23.087Z,992.49
2019-03-09T00:48:23.079Z,992.51
2019-03-09T00:49:23.068Z,992.48
2019-03-09T00:50:23.085Z,992.43
2019-03-09T00:51:23.042Z,992.47
2019-03-09T00:52:23.031Z,992.42
2019-03-09T00:53:23.032Z,992.40
2019-03-09T00:54:23.015Z,992.32
2019-03-09T00:55:23.026Z,992.42
2019-03-09T00:56:22.999Z,992.36
2019-03-09T00:57:22.997Z,992.33
2019-03-09T00:58:22.976Z,992.30
2019-03-09T00:59:22.966Z,992.27
2019-03-09T01:00:22.983Z,992.21
2019-03-09T01:01:22.942Z,992.32
2019-03-09T01:02:22.931Z,992.20
2019-03-09T01:03:22.934Z,992.20
2019-03-09T01:04:22.913Z,992.18
2019-03-09T01:05:22.922Z,992.16
2019-03-09T01:06:22.890Z,992.15
2019-03-09T01:07:22.928Z,992.15
2019-03-09T01:08:22.873Z,992.07
2019-03-09T01:09:22.900Z,992.03
2019-03-09T01:10:22.874Z,992.04
2019-03-09T01:11:22.838Z,992.10
2019-03-09T01:12:22.822Z,992.11
2019-03-09T01:13:22.808Z,992.09
2019-03-09T01:14:22.806Z,991.95
2019-03-09T01:15:22.814Z,991.88
2019-03-09T01:16:22.778Z,991.85
2019-03-09T01:17:22.765Z,991.89
2019-03-09T01:18:22.755Z,991.85
2019-03-09T01:19:22.759Z,991.79
2019-03-09T01:20:22.760Z,991.88
2019-03-09T01:21:22.723Z,991.78
2019-03-09T01:22:22.716Z,991.73
2019-03-09T01:23:22.699Z,991.74
2019-03-09T01:24:22.695Z,991.81
2019-03-09T01:25:22.702Z,991.73
2019-03-09T01:26:22.668Z,991.71
2019-03-09T01:27:22.658Z,991.72
2019-03-09T01:28:22.651Z,991.77
2019-03-09T01:29:22.642Z,991.60
2019-03-09T01:30:22.655Z,991.56
2019-03-09T01:31:22.615Z,991.59
2019-03-09T01:32:22.608Z,991.54
2019-03-09T01:33:22.593Z,991.56
2019-03-09T01:34:22.583Z,991.55
2019-03-09T01:35:22.595Z,991.46
2019-03-09T01:36:22.563Z,991.34
2019-03-09T01:37:22.553Z,991.42
2019-03-09T01:38:22.539Z,991.25
2019-03-09T01:39:22.532Z,991.22
2019-03-09T01:40:22.548Z,991.36
2019-03-09T01:41:22.514Z,991.32
2019-03-09T01:42:22.497Z,991.38
2019-03-09T01:43:22.490Z,991.12
2019-03-09T01:44:22.477Z,991.17
2019-03-09T01:45:22.488Z,991.17
2019-03-09T01:46:22.457Z,991.16
2019-03-09T01:47:22.444Z,991.14
2019-03-09T01:48:22.434Z,991.03
2019-03-09T01:49:22.418Z,990.97
2019-03-09T01:50:22.445Z,991.02
2019-03-09T01:51:22.402Z,991.20
2019-03-09T01:52:22.388Z,991.00
2019-03-09T01:53:22.384Z,991.06
2019-03-09T01:54:22.382Z,990.74
2019-03-09T01:55:22.379Z,991.03
2019-03-09T01:56:22.351Z,991.05
2019-03-09T01:57:22.334Z,991.01
2019-03-09T01:58:22.326Z,991.16
2019-03-09T01:59:22.316Z,991.03
2019-03-09T02:00:22.327Z,990.98
2019-03-09T02:01:22.295Z,991.05
2019-03-09T02:02:22.303Z,990.97
2019-03-09T02:03:22.270Z,991.09
2019-03-09T02:04:22.262Z,991.01
2019-03-09T02:05:22.282Z,990.84
2019-03-09T02:06:22.238Z,991.01
2019-03-09T02:07:22.234Z,990.80
2019-03-09T02:08:22.225Z,991.01
2019-03-09T02:09:22.204Z,990.87
2019-03-09T02:10:22.226Z,991.06
2019-03-09T02:11:22.182Z,990.90
2019-03-09T02:12:22.174Z,990.87
2019-03-09T02:13:22.174Z,990.93
2019-03-09T02:14:22.161Z,990.96
2019-03-09T02:15:22.175Z,990.92
2019-03-09T02:16:22.132Z,990.71
2019-03-09T02:17:22.126Z,990.75
2019-03-09T02:18:22.107Z,990.71
2019-03-09T02:19:22.118Z,990.66
2019-03-09T02:20:22.091Z,990.66
2019-03-09T02:21:22.101Z,990.70
2019-03-09T02:22:22.069Z,990.65
2019-03-09T02:23:22.057Z,990.58
2019-03-09T02:24:22.043Z,990.58
2019-03-09T02:25:22.041Z,990.61
2019-03-09T02:26:22.050Z,990.43
2019-03-09T02:27:22.015Z,990.52
2019-03-09T02:28:22.005Z,990.56
2019-03-09T02:29:21.987Z,990.54
2019-03-09T02:30:21.984Z,990.46
2019-03-09T02:31:22.001Z,990.36
2019-03-09T02:32:21.963Z,990.36
2019-03-09T02:33:21.976Z,990.44
2019-03-09T02:34:21.936Z,990.32
2019-03-09T02:35:21.928Z,990.30
2019-03-09T02:36:21.941Z,990.29
2019-03-09T02:37:21.919Z,990.25
2019-03-09T02:38:21.896Z,990.24
2019-03-09T02:39:21.886Z,990.28
2019-03-09T02:40:23.173Z,990.26
2019-03-09T02:41:21.889Z,990.17
2019-03-09T02:42:21.862Z,990.24
2019-03-09T02:43:21.872Z,990.24
2019-03-09T02:44:21.941Z,990.15
2019-03-09T02:45:21.821Z,990.23
2019-03-09T02:46:21.857Z,990.16
2019-03-09T02:47:21.807Z,990.16
2019-03-09T02:48:21.809Z,990.19
2019-03-09T02:49:21.912Z,990.07
2019-03-09T02:50:21.805Z,990.10
2019-03-09T02:51:21.865Z,990.10
2019-03-09T02:52:21.783Z,990.04
2019-03-09T02:53:21.737Z,990.10
2019-03-09T02:54:21.736Z,990.14
2019-03-09T02:55:21.715Z,990.13
2019-03-09T02:56:21.728Z,990.06
2019-03-09T02:57:21.693Z,990.01
2019-03-09T02:58:21.693Z,989.92
2019-03-09T02:59:21.674Z,990.13
2019-03-09T03:00:21.665Z,989.96
2019-03-09T03:01:21.683Z,989.96
2019-03-09T03:02:21.635Z,989.96
2019-03-09T03:03:21.626Z,989.87
2019-03-09T03:04:21.613Z,989.90
2019-03-09T03:05:21.609Z,989.90
2019-03-09T03:06:21.618Z,989.89
2019-03-09T03:07:21.586Z,989.99
2019-03-09T03:08:21.574Z,989.86
2019-03-09T03:09:21.563Z,989.94
2019-03-09T03:10:21.554Z,989.86
2019-03-09T03:11:21.571Z,989.89
2019-03-09T03:12:21.530Z,990.02
2019-03-09T03:13:21.516Z,989.82
2019-03-09T03:14:21.515Z,989.85
2019-03-09T03:15:21.498Z,989.93
2019-03-09T03:16:21.515Z,989.79
2019-03-09T03:17:21.478Z,989.87
2019-03-09T03:18:21.470Z,989.85
2019-03-09T03:19:21.485Z,989.90
2019-03-09T03:20:21.449Z,989.84
2019-03-09T03:21:21.751Z,989.79
2019-03-09T03:22:21.443Z,989.90
2019-03-09T03:23:21.411Z,989.82
2019-03-09T03:24:21.673Z,989.82
2019-03-09T03:25:21.391Z,989.87
2019-03-09T03:26:21.405Z,989.84
2019-03-09T03:27:21.369Z,989.79
2019-03-09T03:28:21.369Z,989.84
2019-03-09T03:29:21.373Z,989.78
2019-03-09T03:30:21.444Z,989.82
2019-03-09T03:31:21.422Z,989.85
2019-03-09T03:32:21.320Z,989.91
2019-03-09T03:33:21.326Z,989.83
2019-03-09T03:34:21.314Z,989.81
2019-03-09T03:35:21.282Z,989.81
2019-03-09T03:36:21.302Z,989.82
2019-03-09T03:37:21.260Z,989.69
2019-03-09T03:38:21.251Z,989.78
2019-03-09T03:39:21.236Z,989.81
2019-03-09T03:40:21.227Z,989.73
2019-03-09T03:41:21.245Z,989.68
2019-03-09T03:42:21.204Z,989.87
2019-03-09T03:43:21.204Z,989.77
2019-03-09T03:44:21.195Z,989.84
2019-03-09T03:45:21.175Z,989.85
2019-03-09T03:46:21.192Z,989.77
2019-03-09T03:47:21.149Z,989.76
2019-03-09T03:48:21.140Z,989.88
2019-03-09T03:49:21.135Z,989.68
2019-03-09T03:50:21.149Z,989.71
2019-03-09T03:51:21.120Z,989.75
2019-03-09T03:52:21.104Z,989.65
2019-03-09T03:53:21.089Z,989.65
2019-03-09T03:54:21.086Z,989.71
2019-03-09T03:55:21.130Z,989.70
2019-03-09T03:56:21.053Z,989.76
2019-03-09T03:57:21.053Z,989.80
2019-03-09T03:58:21.033Z,989.68
2019-03-09T03:59:21.026Z,989.66
2019-03-09T04:00:21.038Z,989.71
2019-03-09T04:01:21.004Z,989.60
2019-03-09T04:02:20.992Z,989.56
2019-03-09T04:03:20.980Z,989.60
2019-03-09T04:04:20.977Z,989.60
2019-03-09T04:05:20.998Z,989.54
2019-03-09T04:06:20.950Z,989.50
2019-03-09T04:07:20.942Z,989.63
2019-03-09T04:08:20.924Z,989.62
2019-03-09T04:09:20.921Z,989.64
2019-03-09T04:10:20.940Z,989.64
2019-03-09T04:11:20.893Z,989.60
2019-03-09T04:12:20.884Z,989.66
2019-03-09T04:13:20.887Z,989.55
2019-03-09T04:14:20.861Z,989.68
2019-03-09T04:15:20.881Z,989.61
2019-03-09T04:16:20.845Z,989.59
2019-03-09T04:17:20.836Z,989.58
2019-03-09T04:18:20.822Z,989.54
2019-03-09T04:19:20.803Z,989.49
2019-03-09T04:20:20.821Z,989.57
2019-03-09T04:21:20.785Z,989.50
2019-03-09T04:22:20.797Z,989.44
2019-03-09T04:23:20.773Z,989.62
2019-03-09T04:24:20.758Z,989.63
2019-03-09T04:25:20.778Z,989.54
2019-03-09T04:26:20.735Z,989.57
2019-03-09T04:27:20.721Z,989.63
2019-03-09T04:28:20.718Z,989.66
2019-03-09T04:29:20.709Z,989.61
2019-03-09T04:30:21.023Z,989.60
2019-03-09T04:31:20.679Z,989.51
2019-03-09T04:32:20.678Z,989.58
2019-03-09T04:33:20.657Z,989.51
2019-03-09T04:34:20.650Z,989.58
2019-03-09T04:35:20.649Z,989.47
2019-03-09T04:36:20.648Z,989.70
2019-03-09T04:37:20.615Z,989.76
2019-03-09T04:38:20.604Z,989.77
2019-03-09T04:39:20.600Z,989.62
2019-03-09T04:40:20.580Z,989.79
2019-03-09T04:41:20.599Z,989.83
2019-03-09T04:42:20.564Z,989.86
2019-03-09T04:43:20.547Z,989.83
2019-03-09T04:44:20.541Z,989.85
2019-03-09T04:45:20.531Z,990.01
2019-03-09T04:46:20.544Z,989.99
2019-03-09T04:47:20.509Z,989.93
2019-03-09T04:48:20.495Z,990.00
2019-03-09T04:49:20.486Z,989.95
2019-03-09T04:50:20.499Z,990.03
2019-03-09T04:51:20.494Z,989.96
2019-03-09T04:52:20.452Z,989.93
2019-03-09T04:53:20.444Z,989.84
2019-03-09T04:54:20.431Z,989.80
2019-03-09T04:55:20.420Z,989.92
2019-03-09T04:56:20.438Z,989.93
2019-03-09T04:57:20.396Z,990.05
2019-03-09T04:58:20.391Z,989.93
2019-03-09T04:59:20.381Z,989.97
2019-03-09T05:00:20.375Z,990.05
2019-03-09T05:01:20.379Z,990.08
2019-03-09T05:02:20.353Z,990.07
2019-03-09T05:03:20.373Z,990.10
2019-03-09T05:04:20.327Z,989.88
2019-03-09T05:05:20.312Z,989.91
2019-03-09T05:06:29.566Z,989.97
2019-03-09T05:07:20.297Z,990.06
2019-03-09T05:08:20.275Z,990.10
2019-03-09T05:09:20.270Z,989.84
2019-03-09T05:10:20.277Z,989.97
2019-03-09T05:11:20.287Z,990.11
2019-03-09T05:12:20.245Z,990.08
2019-03-09T05:13:20.249Z,990.11
2019-03-09T05:14:20.216Z,990.04
2019-03-09T05:15:20.208Z,989.86
2019-03-09T05:16:20.221Z,990.09
2019-03-09T05:17:20.215Z,990.07
2019-03-09T05:18:20.183Z,990.22
2019-03-09T05:19:20.190Z,990.17
2019-03-09T05:20:20.152Z,990.34
2019-03-09T05:21:20.148Z,990.12
2019-03-09T05:22:20.165Z,990.33
2019-03-09T05:23:20.129Z,990.30
2019-03-09T05:24:20.130Z,990.27
2019-03-09T05:25:20.104Z,990.21
2019-03-09T05:26:20.102Z,990.34
2019-03-09T05:27:20.113Z,990.43
2019-03-09T05:28:20.084Z,990.53
2019-03-09T05:29:20.069Z,990.58
2019-03-09T05:30:20.052Z,990.65
2019-03-09T05:31:20.047Z,990.74
2019-03-09T05:32:20.052Z,990.70
2019-03-09T05:33:20.020Z,990.76
2019-03-09T05:34:20.044Z,990.75
2019-03-09T05:35:19.990Z,990.77
2019-03-09T05:36:19.981Z,990.77
2019-03-09T05:37:20.003Z,990.87
2019-03-09T05:38:19.965Z,990.87
2019-03-09T05:39:19.960Z,990.72
2019-03-09T05:40:19.942Z,990.87
2019-03-09T05:41:19.940Z,990.82
2019-03-09T05:42:19.955Z,990.84
2019-03-09T05:43:19.908Z,990.84
2019-03-09T05:44:19.900Z,990.85
2019-03-09T05:45:19.904Z,990.81
2019-03-09T05:46:20.052Z,990.91
2019-03-09T05:47:19.899Z,990.83
2019-03-09T05:48:19.867Z,990.92
2019-03-09T05:49:19.846Z,990.79
2019-03-09T05:50:19.842Z,991.01
2019-03-09T05:51:19.845Z,990.95
2019-03-09T05:52:19.867Z,990.95
2019-03-09T05:53:19.811Z,990.97
2019-03-09T05:54:19.794Z,990.94
2019-03-09T05:55:19.792Z,991.03
2019-03-09T05:56:19.779Z,990.92
2019-03-09T05:57:19.765Z,990.95
2019-03-09T05:58:19.797Z,990.95
2019-03-09T05:59:19.742Z,991.11
2019-03-09T06:00:19.744Z,991.11
2019-03-09T06:01:19.723Z,991.00
2019-03-09T06:02:19.717Z,991.07
2019-03-09T06:03:19.731Z,991.07
2019-03-09T06:04:19.689Z,991.18
2019-03-09T06:05:19.680Z,991.19
2019-03-09T06:06:19.669Z,991.14
2019-03-09T06:07:19.661Z,991.07
2019-03-09T06:08:19.676Z,991.01
2019-03-09T06:09:19.638Z,991.09
2019-03-09T06:10:19.652Z,991.22
2019-03-09T06:11:19.620Z,991.19
2019-03-09T06:12:19.606Z,991.13
2019-03-09T06:13:19.618Z,991.22
2019-03-09T06:14:19.629Z,991.19
2019-03-09T06:15:19.573Z,991.22
2019-03-09T06:16:19.562Z,991.17
2019-03-09T06:17:19.557Z,991.20
2019-03-09T06:18:19.571Z,991.29
2019-03-09T06:19:19.539Z,991.16
2019-03-09T06:20:19.518Z,991.27
2019-03-09T06:21:19.583Z,991.40
2019-03-09T06:22:19.498Z,991.32
2019-03-09T06:23:19.543Z,991.37
2019-03-09T06:24:19.481Z,991.44
2019-03-09T06:25:19.487Z,991.45
2019-03-09T06:26:19.448Z,991.48
2019-03-09T06:27:19.447Z,991.52
2019-03-09T06:28:19.454Z,991.61
2019-03-09T06:29:19.412Z,991.56
2019-03-09T06:30:19.420Z,991.62
2019-03-09T06:31:19.406Z,991.60
2019-03-09T06:32:19.393Z,991.62
2019-03-09T06:33:19.415Z,991.58
2019-03-09T06:34:19.364Z,991.64
2019-03-09T06:35:19.364Z,991.65
2019-03-09T06:36:19.367Z,991.65
2019-03-09T06:37:19.340Z,991.57
2019-03-09T06:38:19.356Z,991.68
2019-03-09T06:39:19.311Z,991.60
2019-03-09T06:40:19.303Z,991.54
2019-03-09T06:41:19.300Z,991.59
2019-03-09T06:42:19.287Z,991.52
2019-03-09T06:43:19.391Z,991.58
2019-03-09T06:44:19.258Z,991.57
2019-03-09T06:45:19.293Z,991.64
2019-03-09T06:46:19.238Z,991.59
2019-03-09T06:47:19.240Z,991.70
2019-03-09T06:48:19.249Z,991.71
2019-03-09T06:49:19.205Z,991.75
2019-03-09T06:50:19.197Z,991.65
2019-03-09T06:51:19.187Z,991.70
2019-03-09T06:52:19.173Z,991.75
2019-03-09T06:53:19.191Z,991.84
2019-03-09T06:54:19.157Z,991.83
2019-03-09T06:55:19.136Z,991.87
2019-03-09T06:56:19.131Z,991.94
2019-03-09T06:57:19.123Z,991.92
2019-03-09T06:58:19.149Z,991.88
2019-03-09T06:59:19.110Z,991.97
2019-03-09T07:00:19.085Z,991.88
2019-03-09T07:01:19.077Z,991.93
2019-03-09T07:02:19.065Z,991.94
2019-03-09T07:03:19.083Z,991.95
2019-03-09T07:04:19.043Z,992.09
2019-03-09T07:05:19.040Z,992.07
2019-03-09T07:06:19.030Z,992.15
2019-03-09T07:07:19.006Z,992.23
2019-03-09T07:08:19.036Z,992.18
2019-03-09T07:09:18.994Z,992.20
2019-03-09T07:10:19.003Z,992.12
2019-03-09T07:11:18.975Z,992.09
2019-03-09T07:12:18.963Z,992.12
2019-03-09T07:13:18.992Z,992.11
2019-03-09T07:14:18.937Z,992.07
2019-03-09T07:15:18.924Z,992.07
2019-03-09T07:16:19.001Z,992.16
2019-03-09T07:17:18.912Z,992.17
2019-03-09T07:18:18.941Z,992.03
2019-03-09T07:19:18.886Z,992.01
2019-03-09T07:20:18.891Z,991.94
2019-03-09T07:21:18.864Z,991.94
2019-03-09T07:22:18.871Z,992.15
2019-03-09T07:23:18.880Z,992.09
2019-03-09T07:24:18.882Z,992.11
2019-03-09T07:25:18.818Z,992.15
2019-03-09T07:26:18.798Z,992.06
2019-03-09T07:27:18.800Z,992.18
2019-03-09T07:28:18.793Z,992.14
2019-03-09T07:29:18.857Z,992.21
2019-03-09T07:30:18.757Z,992.39
2019-03-09T07:31:18.759Z,992.27
2019-03-09T07:32:18.738Z,992.21
2019-03-09T07:33:18.740Z,992.39
2019-03-09T07:34:18.772Z,992.29
2019-03-09T07:35:18.721Z,992.26
2019-03-09T07:36:18.702Z,992.35
2019-03-09T07:37:18.682Z,992.36
2019-03-09T07:38:18.672Z,992.32
2019-03-09T07:39:18.677Z,992.34
2019-03-09T07:40:18.689Z,992.41
2019-03-09T07:41:18.647Z,992.32
2019-03-09T07:42:18.635Z,992.35
2019-03-09T07:43:18.634Z,992.34
2019-03-09T07:44:18.610Z,992.39
2019-03-09T07:45:18.631Z,992.33
2019-03-09T07:46:18.589Z,992.31
2019-03-09T07:47:18.583Z,992.32
2019-03-09T07:48:18.569Z,992.27
2019-03-09T07:49:18.553Z,992.27
2019-03-09T07:50:18.568Z,992.32
2019-03-09T07:51:18.543Z,992.34
2019-03-09T07:52:18.520Z,992.39
2019-03-09T07:53:18.517Z,992.47
2019-03-09T07:54:18.505Z,992.46
2019-03-09T07:55:18.526Z,992.57
2019-03-09T07:56:18.483Z,992.51
2019-03-09T07:57:18.476Z,992.45
2019-03-09T07:58:18.500Z,992.53
2019-03-09T07:59:18.453Z,992.54
2019-03-09T08:00:18.464Z,992.63
2019-03-09T08:01:18.433Z,992.64
2019-03-09T08:02:18.430Z,992.63
2019-03-09T08:03:18.412Z,992.60
2019-03-09T08:04:18.400Z,992.43
2019-03-09T08:05:18.413Z,992.62
2019-03-09T08:06:18.378Z,992.41
2019-03-09T08:07:18.364Z,992.59
2019-03-09T08:08:18.358Z,992.52
2019-03-09T08:09:18.342Z,992.59
2019-03-09T08:10:18.376Z,992.63
2019-03-09T08:11:18.314Z,992.62
2019-03-09T08:12:18.317Z,992.62
2019-03-09T08:13:18.300Z,992.56
2019-03-09T08:14:18.319Z,992.63
2019-03-09T08:15:18.301Z,992.67
2019-03-09T08:16:18.329Z,992.59
2019-03-09T08:17:18.343Z,992.67
2019-03-09T08:18:18.276Z,992.64
2019-03-09T08:19:18.236Z,992.59
2019-03-09T08:20:18.258Z,992.64
2019-03-09T08:21:18.287Z,992.70
2019-03-09T08:22:18.202Z,992.74
2019-03-09T08:23:18.207Z,992.59
2019-03-09T08:24:18.175Z,992.66
2019-03-09T08:25:18.176Z,992.59
2019-03-09T08:26:18.225Z,992.67
2019-03-09T08:27:18.133Z,992.81
2019-03-09T08:28:18.156Z,992.83
2019-03-09T08:29:18.199Z,992.85
2019-03-09T08:30:18.166Z,992.87
2019-03-09T08:31:18.279Z,992.88
2019-03-09T08:32:18.155Z,992.73
2019-03-09T08:33:18.140Z,992.75
2019-03-09T08:34:18.135Z,992.79
2019-03-09T08:35:18.055Z,992.83
2019-03-09T08:36:18.153Z,992.78
2019-03-09T08:37:18.032Z,992.71
2019-03-09T08:38:18.029Z,992.73
2019-03-09T08:39:18.026Z,992.86
2019-03-09T08:40:18.009Z,992.77
2019-03-09T08:41:18.025Z,992.69
2019-03-09T08:42:18.000Z,992.81
2019-03-09T08:43:17.982Z,992.86
2019-03-09T08:44:17.965Z,992.85
2019-03-09T08:45:18.010Z,992.77
2019-03-09T08:46:18.143Z,992.73
2019-03-09T08:47:17.924Z,992.67
2019-03-09T08:48:17.917Z,992.65
2019-03-09T08:49:17.902Z,992.76
2019-03-09T08:50:17.896Z,992.71
2019-03-09T08:51:17.879Z,992.57
2019-03-09T08:52:17.897Z,992.64
2019-03-09T08:53:17.863Z,992.66
2019-03-09T08:54:17.848Z,992.58
2019-03-09T08:55:18.254Z,992.59
2019-03-09T08:56:17.820Z,992.74
2019-03-09T08:57:17.851Z,992.68
2019-03-09T08:58:17.835Z,992.67
2019-03-09T08:59:17.795Z,992.66
2019-03-09T09:00:17.778Z,992.55
2019-03-09T09:01:17.770Z,992.66
2019-03-09T09:02:17.793Z,992.56
2019-03-09T09:03:17.751Z,992.64
2019-03-09T09:04:17.743Z,992.59
2019-03-09T09:05:17.735Z,992.52
2019-03-09T09:06:17.727Z,992.53
2019-03-09T09:07:17.727Z,992.49
2019-03-09T09:08:17.684Z,992.54
2019-03-09T09:09:17.686Z,992.57
2019-03-09T09:10:17.674Z,992.55
2019-03-09T09:11:17.670Z,992.56
2019-03-09T09:12:17.686Z,992.52
2019-03-09T09:13:17.631Z,992.54
2019-03-09T09:14:17.623Z,992.63
2019-03-09T09:15:17.618Z,992.56
2019-03-09T09:16:17.612Z,992.66
2019-03-09T09:17:17.628Z,992.69
2019-03-09T09:18:17.612Z,992.75
2019-03-09T09:19:17.569Z,992.74
2019-03-09T09:20:17.562Z,992.82
2019-03-09T09:21:17.568Z,992.79
2019-03-09T09:22:17.578Z,992.71
2019-03-09T09:23:17.519Z,992.67
2019-03-09T09:24:17.518Z,992.80
2019-03-09T09:25:17.509Z,992.77
2019-03-09T09:26:17.497Z,992.56
2019-03-09T09:27:17.512Z,992.87
2019-03-09T09:28:17.481Z,992.77
2019-03-09T09:29:17.459Z,992.84
2019-03-09T09:30:17.475Z,992.74
2019-03-09T09:31:17.443Z,992.72
2019-03-09T09:32:17.429Z,992.75
2019-03-09T09:33:17.427Z,992.84
2019-03-09T09:34:17.426Z,992.73
2019-03-09T09:35:17.436Z,992.48
2019-03-09T09:36:17.386Z,992.74
2019-03-09T09:37:17.402Z,992.65
2019-03-09T09:38:17.368Z,992.56
2019-03-09T09:39:17.359Z,992.52
2019-03-09T09:40:17.342Z,992.53
2019-03-09T09:41:17.331Z,992.53
2019-03-09T09:42:17.342Z,992.58
2019-03-09T09:43:17.313Z,992.53
2019-03-09T09:44:17.299Z,992.56
2019-03-09T09:45:17.321Z,992.37
2019-03-09T09:46:17.282Z,992.40
2019-03-09T09:47:17.264Z,992.44
2019-03-09T09:48:17.250Z,992.33
2019-03-09T09:49:17.270Z,992.33
2019-03-09T09:50:17.259Z,992.30
2019-03-09T09:51:17.230Z,992.21
2019-03-09T09:52:17.211Z,992.27
2019-03-09T09:53:17.204Z,992.24
2019-03-09T09:54:17.184Z,992.23
2019-03-09T09:55:17.216Z,992.19
2019-03-09T09:56:17.175Z,992.11
2019-03-09T09:57:17.164Z,992.14
2019-03-09T09:58:17.157Z,992.06
2019-03-09T09:59:17.136Z,992.13
2019-03-09T10:00:17.155Z,992.17
2019-03-09T10:01:17.143Z,992.13
2019-03-09T10:02:17.103Z,992.20
2019-03-09T10:03:17.098Z,992.25
2019-03-09T10:04:17.094Z,992.22
2019-03-09T10:05:17.099Z,992.28
2019-03-09T10:06:17.061Z,992.30
2019-03-09T10:07:17.051Z,992.33
2019-03-09T10:08:17.050Z,992.29
2019-03-09T10:09:17.034Z,992.20
2019-03-09T10:10:17.047Z,992.35
2019-03-09T10:11:17.046Z,992.24
2019-03-09T10:12:17.002Z,992.29
2019-03-09T10:13:16.992Z,992.22
2019-03-09T10:14:16.972Z,992.20
2019-03-09T10:15:16.992Z,992.22
2019-03-09T10:16:16.950Z,992.26
2019-03-09T10:17:16.950Z,992.26
2019-03-09T10:18:16.945Z,992.30
2019-03-09T10:19:16.933Z,992.41
2019-03-09T10:20:16.938Z,992.37
2019-03-09T10:21:16.989Z,992.39
2019-03-09T10:22:16.975Z,992.33
2019-03-09T10:23:16.894Z,992.19
2019-03-09T10:24:16.873Z,992.38
2019-03-09T10:25:16.905Z,992.38
2019-03-09T10:26:16.859Z,992.40
2019-03-09T10:27:16.845Z,992.45
2019-03-09T10:28:16.828Z,992.24
2019-03-09T10:29:16.828Z,992.45
2019-03-09T10:30:16.827Z,992.29
2019-03-09T10:31:16.781Z,992.47
2019-03-09T10:32:16.808Z,992.32
2019-03-09T10:33:16.758Z,992.51
2019-03-09T10:34:16.752Z,992.44
2019-03-09T10:35:16.770Z,992.48
2019-03-09T10:36:16.750Z,992.47
2019-03-09T10:37:16.717Z,992.65
2019-03-09T10:38:16.706Z,992.49
2019-03-09T10:39:16.698Z,992.50
2019-03-09T10:40:16.716Z,992.61
2019-03-09T10:41:16.685Z,992.40
2019-03-09T10:42:16.679Z,992.39
2019-03-09T10:43:16.664Z,992.40
2019-03-09T10:44:16.648Z,992.44
2019-03-09T10:45:16.684Z,992.10
2019-03-09T10:46:16.633Z,992.34
2019-03-09T10:47:16.617Z,992.28
2019-03-09T10:48:16.610Z,992.12
2019-03-09T10:49:16.591Z,992.09
2019-03-09T10:50:16.635Z,992.22
2019-03-09T10:51:16.570Z,992.29
2019-03-09T10:52:16.563Z,992.25
2019-03-09T10:53:16.575Z,992.20
2019-03-09T10:54:16.572Z,992.20
2019-03-09T10:55:16.533Z,992.14
2019-03-09T10:56:16.573Z,992.12
2019-03-09T10:57:16.522Z,992.13
2019-03-09T10:58:16.523Z,992.25
2019-03-09T10:59:16.508Z,992.29
2019-03-09T11:00:16.471Z,992.13
2019-03-09T11:01:16.476Z,992.15
2019-03-09T11:02:16.463Z,992.19
2019-03-09T11:03:16.468Z,992.25
2019-03-09T11:04:16.431Z,992.11
2019-03-09T11:05:16.441Z,992.24
2019-03-09T11:06:27.143Z,992.12
2019-03-09T11:07:16.422Z,992.07
2019-03-09T11:08:16.399Z,992.19
2019-03-09T11:09:16.362Z,992.05
2019-03-09T11:10:16.350Z,992.07
2019-03-09T11:11:16.341Z,991.96
2019-03-09T11:12:16.326Z,992.00
2019-03-09T11:13:16.341Z,992.05
2019-03-09T11:14:16.304Z,991.91
2019-03-09T11:15:16.296Z,992.18
2019-03-09T11:16:16.284Z,992.14
2019-03-09T11:17:16.272Z,991.73
2019-03-09T11:18:16.288Z,992.06
2019-03-09T11:19:16.263Z,991.93
2019-03-09T11:20:16.245Z,991.96
2019-03-09T11:21:16.238Z,991.84
2019-03-09T11:22:16.225Z,991.99
2019-03-09T11:23:16.249Z,991.83
2019-03-09T11:24:16.197Z,991.93
2019-03-09T11:25:16.186Z,991.93
2019-03-09T11:26:16.197Z,991.78
2019-03-09T11:27:16.161Z,992.00
2019-03-09T11:28:16.454Z,991.91
2019-03-09T11:29:16.144Z,991.83
2019-03-09T11:30:16.127Z,991.94
2019-03-09T11:31:16.129Z,991.87
2019-03-09T11:32:16.109Z,991.86
2019-03-09T11:33:16.098Z,991.83
2019-03-09T11:34:16.112Z,991.73
2019-03-09T11:35:16.078Z,991.59
2019-03-09T11:36:16.064Z,991.68
2019-03-09T11:37:16.055Z,991.46
2019-03-09T11:38:16.044Z,991.62
2019-03-09T11:39:16.069Z,991.41
2019-03-09T11:40:16.024Z,991.49
2019-03-09T11:41:19.356Z,991.54
2019-03-09T11:42:15.999Z,991.44
2019-03-09T11:43:15.992Z,991.51
2019-03-09T11:44:16.007Z,991.40
2019-03-09T11:45:15.964Z,991.32
2019-03-09T11:46:15.957Z,991.33
2019-03-09T11:47:15.944Z,991.38
2019-03-09T11:48:15.937Z,991.32
2019-03-09T11:49:15.959Z,991.45
2019-03-09T11:50:15.909Z,991.47
2019-03-09T11:51:15.906Z,991.53
2019-03-09T11:52:20.064Z,991.56
2019-03-09T11:53:15.888Z,991.54
2019-03-09T11:54:15.896Z,991.50
2019-03-09T11:55:15.879Z,991.37
2019-03-09T11:56:15.849Z,991.48
2019-03-09T11:57:15.841Z,991.47
2019-03-09T11:58:15.827Z,991.31
2019-03-09T11:59:15.847Z,991.21
2019-03-09T12:00:15.813Z,991.08
2019-03-09T12:01:15.794Z,991.28
2019-03-09T12:02:15.786Z,991.08
2019-03-09T12:03:15.768Z,991.07
2019-03-09T12:04:15.796Z,991.12
2019-03-09T12:05:15.752Z,991.23
2019-03-09T12:06:15.737Z,991.36
2019-03-09T12:07:15.730Z,991.27
2019-03-09T12:08:15.717Z,991.39
2019-03-09T12:09:15.752Z,991.24
2019-03-09T12:10:15.698Z,991.16
2019-03-09T12:11:15.690Z,991.23
2019-03-09T12:12:15.677Z,991.44
2019-03-09T12:13:15.665Z,991.46
2019-03-09T12:14:15.713Z,991.40
2019-03-09T12:15:15.645Z,991.54
2019-03-09T12:16:15.629Z,991.42
2019-03-09T12:17:15.621Z,991.38
2019-03-09T12:18:15.620Z,991.45
2019-03-09T12:19:15.629Z,991.40
2019-03-09T12:20:15.592Z,991.38
2019-03-09T12:21:15.585Z,991.43
2019-03-09T12:22:15.564Z,991.37
2019-03-09T12:23:15.558Z,991.43
2019-03-09T12:24:17.724Z,991.29
2019-03-09T12:25:15.539Z,991.33
2019-03-09T12:26:15.520Z,991.37
2019-03-09T12:27:15.514Z,991.33
2019-03-09T12:28:15.506Z,991.42